sensor_id;sensor_type;location;lat;lon;timestamp;pressure;altitude;pressure_sealevel;temperature;humidity
9225;BME280;4647;48.072;11.616;2023-07-29T00:00:20;95031.19;;;15.88;95.77
9225;BME280;4647;48.072;11.616;2023-07-29T00:02:48;95026.22;;;15.96;95.65
9225;BME280;4647;48.072;11.616;2023-07-29T00:05:19;95024.09;;;16.00;95.02
9225;BME280;4647;48.072;11.616;2023-07-29T00:07:47;95020.59;;;16.00;94.99
9225;BME280;4647;48.072;11.616;2023-07-29T00:10:16;95011.31;;;15.88;94.91
9225;BME280;4647;48.072;11.616;2023-07-29T00:12:44;95022.34;;;15.84;95.14
9225;BME280;4647;48.072;11.616;2023-07-29T00:15:12;95020.84;;;15.83;95.31
9225;BME280;4647;48.072;11.616;2023-07-29T00:17:41;95017.94;;;15.78;95.45
9225;BME280;4647;48.072;11.616;2023-07-29T00:20:09;95018.78;;;15.96;94.77
9225;BME280;4647;48.072;11.616;2023-07-29T00:22:41;95017.69;;;15.94;94.81
9225;BME280;4647;48.072;11.616;2023-07-29T00:25:09;95016.91;;;15.84;95.44
9225;BME280;4647;48.072;11.616;2023-07-29T00:27:38;95014.75;;;15.79;95.45
9225;BME280;4647;48.072;11.616;2023-07-29T00:30:07;95012.03;;;15.79;95.93
9225;BME280;4647;48.072;11.616;2023-07-29T00:32:36;95007.81;;;15.87;95.23
9225;BME280;4647;48.072;11.616;2023-07-29T00:35:05;95012.06;;;15.88;95.19
9225;BME280;4647;48.072;11.616;2023-07-29T00:37:34;95011.16;;;15.91;95.25
9225;BME280;4647;48.072;11.616;2023-07-29T00:40:12;95006.31;;;15.95;94.72
9225;BME280;4647;48.072;11.616;2023-07-29T00:42:43;95012.25;;;16.03;94.40
9225;BME280;4647;48.072;11.616;2023-07-29T00:45:11;94999.97;;;16.08;94.27
9225;BME280;4647;48.072;11.616;2023-07-29T00:47:41;95005.72;;;16.01;95.10
9225;BME280;4647;48.072;11.616;2023-07-29T00:50:11;95014.88;;;16.16;94.44
9225;BME280;4647;48.072;11.616;2023-07-29T00:52:40;95004.88;;;16.22;94.23
9225;BME280;4647;48.072;11.616;2023-07-29T00:55:11;95000.00;;;16.26;94.52
9225;BME280;4647;48.072;11.616;2023-07-29T00:57:39;94996.06;;;16.27;94.27
9225;BME280;4647;48.072;11.616;2023-07-29T01:00:14;94997.44;;;16.32;93.75
9225;BME280;4647;48.072;11.616;2023-07-29T01:02:42;94994.53;;;16.26;94.16
9225;BME280;4647;48.072;11.616;2023-07-29T01:05:12;95007.34;;;16.38;93.74
9225;BME280;4647;48.072;11.616;2023-07-29T01:07:47;95004.59;;;16.47;93.36
9225;BME280;4647;48.072;11.616;2023-07-29T01:10:28;95011.88;;;16.41;93.51
9225;BME280;4647;48.072;11.616;2023-07-29T01:13:05;94999.75;;;16.33;93.24
9225;BME280;4647;48.072;11.616;2023-07-29T01:15:41;95015.19;;;16.27;93.26
9225;BME280;4647;48.072;11.616;2023-07-29T01:18:18;94972.78;;;16.04;93.87
9225;BME280;4647;48.072;11.616;2023-07-29T01:20:59;94996.66;;;16.13;93.46
9225;BME280;4647;48.072;11.616;2023-07-29T01:23:32;94987.41;;;16.10;93.87
9225;BME280;4647;48.072;11.616;2023-07-29T01:26:00;94984.91;;;15.94;93.52
9225;BME280;4647;48.072;11.616;2023-07-29T01:31:13;94988.06;;;15.83;94.06
9225;BME280;4647;48.072;11.616;2023-07-29T01:33:49;94991.91;;;15.95;94.49
9225;BME280;4647;48.072;11.616;2023-07-29T01:36:23;94985.78;;;15.82;93.62
9225;BME280;4647;48.072;11.616;2023-07-29T01:38:59;94981.56;;;15.90;93.78
9225;BME280;4647;48.072;11.616;2023-07-29T01:41:29;94965.44;;;15.74;93.69
9225;BME280;4647;48.072;11.616;2023-07-29T01:43:58;94975.50;;;15.86;94.00
9225;BME280;4647;48.072;11.616;2023-07-29T01:46:27;94974.44;;;15.92;93.58
9225;BME280;4647;48.072;11.616;2023-07-29T01:48:56;94976.69;;;15.85;93.16
9225;BME280;4647;48.072;11.616;2023-07-29T01:51:24;94988.94;;;15.71;93.92
9225;BME280;4647;48.072;11.616;2023-07-29T01:53:53;94986.81;;;15.66;94.35
9225;BME280;4647;48.072;11.616;2023-07-29T01:56:24;94977.88;;;15.75;93.99
9225;BME280;4647;48.072;11.616;2023-07-29T01:58:53;94968.91;;;15.74;93.97
9225;BME280;4647;48.072;11.616;2023-07-29T02:01:22;94972.41;;;15.75;94.22
9225;BME280;4647;48.072;11.616;2023-07-29T02:03:50;94962.47;;;15.59;95.25
9225;BME280;4647;48.072;11.616;2023-07-29T02:06:20;94977.56;;;15.73;94.71
9225;BME280;4647;48.072;11.616;2023-07-29T02:08:49;94973.16;;;15.66;94.99
9225;BME280;4647;48.072;11.616;2023-07-29T02:11:17;94971.78;;;15.61;95.55
9225;BME280;4647;48.072;11.616;2023-07-29T02:13:55;94959.94;;;15.64;94.47
9225;BME280;4647;48.072;11.616;2023-07-29T02:16:23;94965.56;;;15.70;94.85
9225;BME280;4647;48.072;11.616;2023-07-29T02:18:52;94964.13;;;15.56;95.16
9225;BME280;4647;48.072;11.616;2023-07-29T02:21:20;94962.22;;;15.66;95.01
9225;BME280;4647;48.072;11.616;2023-07-29T02:23:49;94966.63;;;15.63;94.54
9225;BME280;4647;48.072;11.616;2023-07-29T02:26:17;94957.22;;;15.64;94.86
9225;BME280;4647;48.072;11.616;2023-07-29T02:28:45;94959.56;;;15.53;95.00
9225;BME280;4647;48.072;11.616;2023-07-29T02:31:20;94968.97;;;15.52;95.19
9225;BME280;4647;48.072;11.616;2023-07-29T02:33:48;94956.28;;;15.36;95.50
9225;BME280;4647;48.072;11.616;2023-07-29T02:36:17;94951.44;;;15.31;95.54
9225;BME280;4647;48.072;11.616;2023-07-29T02:38:46;94971.84;;;15.49;94.83
9225;BME280;4647;48.072;11.616;2023-07-29T02:41:14;94985.16;;;15.47;94.91
9225;BME280;4647;48.072;11.616;2023-07-29T02:43:43;94980.00;;;15.40;95.14
9225;BME280;4647;48.072;11.616;2023-07-29T02:46:12;94987.97;;;15.34;95.13
9225;BME280;4647;48.072;11.616;2023-07-29T02:48:43;94982.34;;;15.28;95.96
9225;BME280;4647;48.072;11.616;2023-07-29T02:51:12;94984.63;;;15.30;95.43
9225;BME280;4647;48.072;11.616;2023-07-29T02:53:40;94979.03;;;15.33;95.76
9225;BME280;4647;48.072;11.616;2023-07-29T02:56:09;94970.97;;;15.30;95.25
9225;BME280;4647;48.072;11.616;2023-07-29T02:58:37;94975.75;;;15.39;95.28
9225;BME280;4647;48.072;11.616;2023-07-29T03:01:06;94975.06;;;15.25;96.33
9225;BME280;4647;48.072;11.616;2023-07-29T03:03:34;94969.91;;;15.27;95.64
9225;BME280;4647;48.072;11.616;2023-07-29T03:06:07;94967.28;;;15.15;96.59
9225;BME280;4647;48.072;11.616;2023-07-29T03:08:36;94966.38;;;15.18;96.83
9225;BME280;4647;48.072;11.616;2023-07-29T03:11:06;94967.00;;;15.22;96.53
9225;BME280;4647;48.072;11.616;2023-07-29T03:13:35;94961.44;;;15.34;95.66
9225;BME280;4647;48.072;11.616;2023-07-29T03:16:07;94972.38;;;15.34;96.06
9225;BME280;4647;48.072;11.616;2023-07-29T03:18:36;94962.47;;;15.28;96.11
9225;BME280;4647;48.072;11.616;2023-07-29T03:21:07;94980.09;;;15.36;95.77
9225;BME280;4647;48.072;11.616;2023-07-29T03:23:37;94980.25;;;15.32;94.97
9225;BME280;4647;48.072;11.616;2023-07-29T03:26:06;94978.84;;;15.28;95.57
9225;BME280;4647;48.072;11.616;2023-07-29T03:28:40;94968.03;;;15.15;96.55
9225;BME280;4647;48.072;11.616;2023-07-29T03:31:09;94973.41;;;15.28;96.07
9225;BME280;4647;48.072;11.616;2023-07-29T03:33:37;94963.97;;;15.20;96.40
9225;BME280;4647;48.072;11.616;2023-07-29T03:36:08;94963.38;;;15.25;95.96
9225;BME280;4647;48.072;11.616;2023-07-29T03:38:37;94964.94;;;15.35;94.59
9225;BME280;4647;48.072;11.616;2023-07-29T03:41:06;94964.88;;;15.17;96.05
9225;BME280;4647;48.072;11.616;2023-07-29T03:43:35;94965.03;;;15.22;95.71
9225;BME280;4647;48.072;11.616;2023-07-29T03:46:03;94948.03;;;15.18;95.44
9225;BME280;4647;48.072;11.616;2023-07-29T03:48:31;94963.41;;;15.34;95.48
9225;BME280;4647;48.072;11.616;2023-07-29T03:51:01;94963.59;;;15.61;95.01
9225;BME280;4647;48.072;11.616;2023-07-29T03:53:32;94941.91;;;15.67;94.15
9225;BME280;4647;48.072;11.616;2023-07-29T03:56:01;94956.47;;;15.73;93.85
9225;BME280;4647;48.072;11.616;2023-07-29T03:58:29;94970.19;;;15.91;93.26
9225;BME280;4647;48.072;11.616;2023-07-29T04:00:57;94965.81;;;16.03;91.73
9225;BME280;4647;48.072;11.616;2023-07-29T04:03:26;94966.28;;;16.11;92.18
9225;BME280;4647;48.072;11.616;2023-07-29T04:05:54;94970.53;;;16.12;90.32
9225;BME280;4647;48.072;11.616;2023-07-29T04:08:23;94968.69;;;16.00;90.30
9225;BME280;4647;48.072;11.616;2023-07-29T04:10:54;94966.13;;;16.14;90.47
9225;BME280;4647;48.072;11.616;2023-07-29T04:13:22;94953.03;;;16.00;91.05
9225;BME280;4647;48.072;11.616;2023-07-29T04:15:51;94960.06;;;16.10;91.18
9225;BME280;4647;48.072;11.616;2023-07-29T04:18:19;94950.00;;;16.07;90.49
9225;BME280;4647;48.072;11.616;2023-07-29T04:20:47;94946.25;;;16.14;91.44
9225;BME280;4647;48.072;11.616;2023-07-29T04:23:16;94939.56;;;16.15;90.72
9225;BME280;4647;48.072;11.616;2023-07-29T04:25:44;94922.56;;;16.11;90.80
9225;BME280;4647;48.072;11.616;2023-07-29T04:28:15;94925.28;;;16.29;91.06
9225;BME280;4647;48.072;11.616;2023-07-29T04:30:44;94928.47;;;16.46;89.91
9225;BME280;4647;48.072;11.616;2023-07-29T04:33:12;94908.13;;;16.47;89.21
9225;BME280;4647;48.072;11.616;2023-07-29T04:35:41;94917.41;;;16.58;88.66
9225;BME280;4647;48.072;11.616;2023-07-29T04:38:09;94915.44;;;16.68;88.25
9225;BME280;4647;48.072;11.616;2023-07-29T04:40:38;94911.91;;;16.77;87.85
9225;BME280;4647;48.072;11.616;2023-07-29T04:43:06;94922.00;;;17.22;87.19
9225;BME280;4647;48.072;11.616;2023-07-29T04:45:42;94928.09;;;18.79;79.42
9225;BME280;4647;48.072;11.616;2023-07-29T04:48:11;94931.00;;;19.63;73.36
9225;BME280;4647;48.072;11.616;2023-07-29T04:50:39;94927.25;;;18.87;74.70
9225;BME280;4647;48.072;11.616;2023-07-29T04:53:07;94925.72;;;18.09;78.56
9225;BME280;4647;48.072;11.616;2023-07-29T04:55:36;94925.03;;;18.23;78.56
9225;BME280;4647;48.072;11.616;2023-07-29T04:58:04;94931.38;;;18.29;78.83
9225;BME280;4647;48.072;11.616;2023-07-29T05:00:32;94927.97;;;18.34;78.11
9225;BME280;4647;48.072;11.616;2023-07-29T05:03:04;94921.00;;;19.81;73.24
9225;BME280;4647;48.072;11.616;2023-07-29T05:05:32;94925.81;;;21.39;66.23
9225;BME280;4647;48.072;11.616;2023-07-29T05:08:01;94918.97;;;22.52;61.90
9225;BME280;4647;48.072;11.616;2023-07-29T05:10:29;94922.44;;;23.73;58.13
9225;BME280;4647;48.072;11.616;2023-07-29T05:12:57;94910.31;;;23.99;57.40
9225;BME280;4647;48.072;11.616;2023-07-29T05:15:26;94918.56;;;24.38;56.20
9225;BME280;4647;48.072;11.616;2023-07-29T05:17:54;94914.31;;;24.14;56.62
9225;BME280;4647;48.072;11.616;2023-07-29T05:20:25;94909.34;;;23.40;57.78
9225;BME280;4647;48.072;11.616;2023-07-29T05:22:54;94899.56;;;23.34;57.88
9225;BME280;4647;48.072;11.616;2023-07-29T05:25:22;94898.69;;;22.66;60.40
9225;BME280;4647;48.072;11.616;2023-07-29T05:27:50;94894.44;;;22.05;62.96
9225;BME280;4647;48.072;11.616;2023-07-29T05:30:19;94894.25;;;22.20;62.31
9225;BME280;4647;48.072;11.616;2023-07-29T05:32:47;94895.97;;;21.69;63.82
9225;BME280;4647;48.072;11.616;2023-07-29T05:35:17;94899.66;;;21.61;64.31
9225;BME280;4647;48.072;11.616;2023-07-29T05:37:48;94904.44;;;22.03;63.59
9225;BME280;4647;48.072;11.616;2023-07-29T05:40:16;94914.63;;;21.86;63.44
9225;BME280;4647;48.072;11.616;2023-07-29T05:42:45;94906.19;;;22.00;62.85
9225;BME280;4647;48.072;11.616;2023-07-29T05:45:13;94916.16;;;21.92;63.29
9225;BME280;4647;48.072;11.616;2023-07-29T05:47:41;94921.28;;;21.68;64.43
9225;BME280;4647;48.072;11.616;2023-07-29T05:50:14;94920.47;;;21.62;64.88
9225;BME280;4647;48.072;11.616;2023-07-29T05:52:44;94921.19;;;21.57;66.03
9225;BME280;4647;48.072;11.616;2023-07-29T05:55:15;94930.09;;;21.40;66.17
9225;BME280;4647;48.072;11.616;2023-07-29T05:57:43;94920.91;;;21.23;67.11
9225;BME280;4647;48.072;11.616;2023-07-29T06:00:12;94924.19;;;21.01;68.13
9225;BME280;4647;48.072;11.616;2023-07-29T06:02:41;94935.16;;;20.70;69.24
9225;BME280;4647;48.072;11.616;2023-07-29T06:05:09;94949.66;;;20.30;70.85
9225;BME280;4647;48.072;11.616;2023-07-29T06:07:37;94977.91;;;19.75;72.73
9225;BME280;4647;48.072;11.616;2023-07-29T06:10:09;95003.41;;;19.31;75.65
9225;BME280;4647;48.072;11.616;2023-07-29T06:12:41;94981.03;;;18.94;77.47
9225;BME280;4647;48.072;11.616;2023-07-29T06:15:09;94968.53;;;18.93;77.99
9225;BME280;4647;48.072;11.616;2023-07-29T06:17:38;94963.81;;;18.93;78.38
9225;BME280;4647;48.072;11.616;2023-07-29T06:20:07;94923.56;;;18.13;82.25
9225;BME280;4647;48.072;11.616;2023-07-29T06:22:36;94927.13;;;18.04;82.77
9225;BME280;4647;48.072;11.616;2023-07-29T06:25:05;94920.91;;;18.19;81.53
9225;BME280;4647;48.072;11.616;2023-07-29T06:27:33;94921.63;;;18.67;81.04
9225;BME280;4647;48.072;11.616;2023-07-29T06:30:05;94923.13;;;18.68;79.82
9225;BME280;4647;48.072;11.616;2023-07-29T06:32:34;94917.97;;;19.14;77.87
9225;BME280;4647;48.072;11.616;2023-07-29T06:35:03;94926.28;;;19.64;75.88
9225;BME280;4647;48.072;11.616;2023-07-29T06:37:31;94940.94;;;19.76;75.85
9225;BME280;4647;48.072;11.616;2023-07-29T06:40:00;94950.41;;;19.89;74.99
9225;BME280;4647;48.072;11.616;2023-07-29T06:42:29;94950.00;;;19.97;74.52
9225;BME280;4647;48.072;11.616;2023-07-29T06:44:57;94953.25;;;19.80;73.80
9225;BME280;4647;48.072;11.616;2023-07-29T06:47:28;94975.19;;;19.45;75.82
9225;BME280;4647;48.072;11.616;2023-07-29T06:49:56;94986.34;;;19.12;76.57
9225;BME280;4647;48.072;11.616;2023-07-29T06:52:25;94989.16;;;18.88;78.03
9225;BME280;4647;48.072;11.616;2023-07-29T06:54:53;94995.72;;;18.67;78.51
9225;BME280;4647;48.072;11.616;2023-07-29T06:57:22;94985.91;;;18.51;79.68
9225;BME280;4647;48.072;11.616;2023-07-29T06:59:51;95002.97;;;18.55;79.22
9225;BME280;4647;48.072;11.616;2023-07-29T07:02:19;95006.22;;;18.45;80.02
9225;BME280;4647;48.072;11.616;2023-07-29T07:04:50;95009.56;;;18.49;80.22
9225;BME280;4647;48.072;11.616;2023-07-29T07:07:19;95011.69;;;18.45;79.17
9225;BME280;4647;48.072;11.616;2023-07-29T07:09:47;95007.47;;;18.67;79.58
9225;BME280;4647;48.072;11.616;2023-07-29T07:12:17;95015.91;;;18.55;78.98
9225;BME280;4647;48.072;11.616;2023-07-29T07:14:45;95012.53;;;18.60;79.34
9225;BME280;4647;48.072;11.616;2023-07-29T07:17:14;95008.56;;;18.61;80.67
9225;BME280;4647;48.072;11.616;2023-07-29T07:19:43;94989.47;;;18.66;79.57
9225;BME280;4647;48.072;11.616;2023-07-29T07:22:14;95007.13;;;18.89;78.84
9225;BME280;4647;48.072;11.616;2023-07-29T07:24:42;94996.53;;;18.82;79.39
9225;BME280;4647;48.072;11.616;2023-07-29T07:27:11;95000.16;;;19.03;79.27
9225;BME280;4647;48.072;11.616;2023-07-29T07:29:39;95000.94;;;19.33;77.85
9225;BME280;4647;48.072;11.616;2023-07-29T07:32:08;94994.28;;;19.40;77.07
9225;BME280;4647;48.072;11.616;2023-07-29T07:34:36;95001.63;;;19.43;76.87
9225;BME280;4647;48.072;11.616;2023-07-29T07:37:05;95001.63;;;19.57;76.36
9225;BME280;4647;48.072;11.616;2023-07-29T07:39:36;94991.78;;;19.66;76.79
9225;BME280;4647;48.072;11.616;2023-07-29T07:42:05;94983.00;;;19.82;77.09
9225;BME280;4647;48.072;11.616;2023-07-29T07:44:34;94969.69;;;19.30;78.61
9225;BME280;4647;48.072;11.616;2023-07-29T07:47:02;94937.84;;;19.09;79.36
9225;BME280;4647;48.072;11.616;2023-07-29T07:49:31;94945.91;;;19.57;78.79
9225;BME280;4647;48.072;11.616;2023-07-29T07:51:59;94951.91;;;20.11;76.47
9225;BME280;4647;48.072;11.616;2023-07-29T07:54:27;94942.56;;;20.03;74.96
9225;BME280;4647;48.072;11.616;2023-07-29T07:56:58;94946.97;;;19.95;75.94
9225;BME280;4647;48.072;11.616;2023-07-29T07:59:27;94931.84;;;19.70;77.31
9225;BME280;4647;48.072;11.616;2023-07-29T08:01:55;94944.66;;;19.73;77.04
9225;BME280;4647;48.072;11.616;2023-07-29T08:04:24;94946.19;;;19.94;76.53
9225;BME280;4647;48.072;11.616;2023-07-29T08:06:52;94946.34;;;20.05;75.71
9225;BME280;4647;48.072;11.616;2023-07-29T08:09:20;94946.72;;;20.53;74.32
9225;BME280;4647;48.072;11.616;2023-07-29T08:11:49;94954.34;;;20.84;72.97
9225;BME280;4647;48.072;11.616;2023-07-29T08:14:20;94954.94;;;21.20;71.60
9225;BME280;4647;48.072;11.616;2023-07-29T08:16:48;94956.59;;;21.32;71.44
9225;BME280;4647;48.072;11.616;2023-07-29T08:19:17;94952.53;;;21.59;70.72
9225;BME280;4647;48.072;11.616;2023-07-29T08:21:45;94951.91;;;22.07;68.68
9225;BME280;4647;48.072;11.616;2023-07-29T08:24:13;94955.28;;;22.33;67.75
9225;BME280;4647;48.072;11.616;2023-07-29T08:26:42;94946.34;;;22.55;66.60
9225;BME280;4647;48.072;11.616;2023-07-29T08:29:10;94944.84;;;22.60;66.57
9225;BME280;4647;48.072;11.616;2023-07-29T08:31:41;94948.53;;;23.00;65.30
9225;BME280;4647;48.072;11.616;2023-07-29T08:34:10;94953.81;;;22.44;66.58
9225;BME280;4647;48.072;11.616;2023-07-29T08:36:38;94948.53;;;23.05;65.34
9225;BME280;4647;48.072;11.616;2023-07-29T08:39:06;94946.81;;;23.52;63.29
9225;BME280;4647;48.072;11.616;2023-07-29T08:41:39;94952.88;;;23.73;62.67
9225;BME280;4647;48.072;11.616;2023-07-29T08:44:12;94959.19;;;23.68;62.99
9225;BME280;4647;48.072;11.616;2023-07-29T08:46:49;94956.13;;;23.61;63.07
9225;BME280;4647;48.072;11.616;2023-07-29T08:49:19;94954.63;;;23.65;62.79
9225;BME280;4647;48.072;11.616;2023-07-29T08:51:49;94954.16;;;23.67;62.25
9225;BME280;4647;48.072;11.616;2023-07-29T08:54:17;94943.78;;;23.89;61.61
9225;BME280;4647;48.072;11.616;2023-07-29T08:56:46;94949.81;;;23.88;61.95
9225;BME280;4647;48.072;11.616;2023-07-29T08:59:15;94948.59;;;23.83;62.53
9225;BME280;4647;48.072;11.616;2023-07-29T09:01:45;94953.28;;;24.28;60.13
9225;BME280;4647;48.072;11.616;2023-07-29T09:04:17;94948.03;;;24.13;60.98
9225;BME280;4647;48.072;11.616;2023-07-29T09:06:47;94936.97;;;24.07;61.57
9225;BME280;4647;48.072;11.616;2023-07-29T09:09:16;94942.44;;;24.46;60.05
9225;BME280;4647;48.072;11.616;2023-07-29T09:11:44;94958.75;;;24.56;60.03
9225;BME280;4647;48.072;11.616;2023-07-29T09:14:13;94952.81;;;24.93;58.29
9225;BME280;4647;48.072;11.616;2023-07-29T09:16:43;94952.19;;;24.59;58.87
9225;BME280;4647;48.072;11.616;2023-07-29T09:19:11;94949.78;;;24.38;60.24
9225;BME280;4647;48.072;11.616;2023-07-29T09:21:42;94957.69;;;24.70;58.57
9225;BME280;4647;48.072;11.616;2023-07-29T09:24:16;94960.25;;;24.57;58.64
9225;BME280;4647;48.072;11.616;2023-07-29T09:26:48;94949.75;;;24.33;59.50
9225;BME280;4647;48.072;11.616;2023-07-29T09:29:22;94959.00;;;24.58;59.12
9225;BME280;4647;48.072;11.616;2023-07-29T09:31:50;94946.97;;;24.96;58.39
9225;BME280;4647;48.072;11.616;2023-07-29T09:34:19;94953.22;;;25.14;57.17
9225;BME280;4647;48.072;11.616;2023-07-29T09:36:50;94953.78;;;25.01;57.34
9225;BME280;4647;48.072;11.616;2023-07-29T09:39:18;94946.03;;;25.29;56.55
9225;BME280;4647;48.072;11.616;2023-07-29T09:41:51;94953.38;;;25.62;55.76
9225;BME280;4647;48.072;11.616;2023-07-29T09:44:19;94953.41;;;25.57;54.77
9225;BME280;4647;48.072;11.616;2023-07-29T09:46:47;94945.72;;;25.74;53.38
9225;BME280;4647;48.072;11.616;2023-07-29T09:49:16;94930.09;;;25.41;53.62
9225;BME280;4647;48.072;11.616;2023-07-29T09:51:45;94956.16;;;25.62;53.09
9225;BME280;4647;48.072;11.616;2023-07-29T09:54:16;94950.44;;;25.85;53.07
9225;BME280;4647;48.072;11.616;2023-07-29T09:56:45;94946.19;;;26.33;52.78
9225;BME280;4647;48.072;11.616;2023-07-29T09:59:13;94946.34;;;26.65;52.62
9225;BME280;4647;48.072;11.616;2023-07-29T10:01:41;94942.03;;;26.64;52.21
9225;BME280;4647;48.072;11.616;2023-07-29T10:04:13;94927.56;;;26.71;52.05
9225;BME280;4647;48.072;11.616;2023-07-29T10:06:42;94935.34;;;26.72;52.93
9225;BME280;4647;48.072;11.616;2023-07-29T10:09:11;94926.94;;;26.59;51.05
9225;BME280;4647;48.072;11.616;2023-07-29T10:11:43;94923.81;;;27.25;50.33
9225;BME280;4647;48.072;11.616;2023-07-29T10:14:12;94935.38;;;27.79;48.95
9225;BME280;4647;48.072;11.616;2023-07-29T10:16:42;94928.50;;;27.48;50.04
9225;BME280;4647;48.072;11.616;2023-07-29T10:19:13;94925.63;;;27.86;49.18
9225;BME280;4647;48.072;11.616;2023-07-29T10:21:44;94936.75;;;27.86;48.94
9225;BME280;4647;48.072;11.616;2023-07-29T10:27:30;94918.56;;;27.21;51.07
9225;BME280;4647;48.072;11.616;2023-07-29T10:30:02;94924.34;;;27.55;50.62
9225;BME280;4647;48.072;11.616;2023-07-29T10:32:31;94903.06;;;26.88;50.74
9225;BME280;4647;48.072;11.616;2023-07-29T10:35:03;94912.38;;;26.90;51.04
9225;BME280;4647;48.072;11.616;2023-07-29T10:37:32;94901.41;;;27.17;50.29
9225;BME280;4647;48.072;11.616;2023-07-29T10:40:07;94910.25;;;27.34;47.73
9225;BME280;4647;48.072;11.616;2023-07-29T10:42:39;94894.56;;;27.18;48.90
9225;BME280;4647;48.072;11.616;2023-07-29T10:45:36;94900.19;;;26.93;48.14
9225;BME280;4647;48.072;11.616;2023-07-29T10:48:06;94902.22;;;26.93;49.27
9225;BME280;4647;48.072;11.616;2023-07-29T10:50:35;94903.41;;;27.03;48.43
9225;BME280;4647;48.072;11.616;2023-07-29T10:53:03;94889.22;;;27.20;48.46
9225;BME280;4647;48.072;11.616;2023-07-29T10:55:33;94901.13;;;28.24;46.25
9225;BME280;4647;48.072;11.616;2023-07-29T10:58:16;94900.91;;;28.75;45.93
9225;BME280;4647;48.072;11.616;2023-07-29T11:00:45;94911.66;;;29.18;43.76
9225;BME280;4647;48.072;11.616;2023-07-29T11:03:14;94895.91;;;28.21;43.94
9225;BME280;4647;48.072;11.616;2023-07-29T11:05:52;94895.06;;;27.35;46.83
9225;BME280;4647;48.072;11.616;2023-07-29T11:08:23;94890.72;;;27.72;46.83
9225;BME280;4647;48.072;11.616;2023-07-29T11:11:03;94894.91;;;27.60;47.27
9225;BME280;4647;48.072;11.616;2023-07-29T11:13:36;94889.22;;;27.84;46.49
9225;BME280;4647;48.072;11.616;2023-07-29T11:16:05;94888.81;;;27.61;46.86
9225;BME280;4647;48.072;11.616;2023-07-29T11:18:35;94888.78;;;27.80;46.28
9225;BME280;4647;48.072;11.616;2023-07-29T11:21:05;94890.72;;;27.85;46.07
9225;BME280;4647;48.072;11.616;2023-07-29T11:23:35;94900.03;;;27.88;46.16
9225;BME280;4647;48.072;11.616;2023-07-29T11:26:04;94885.91;;;27.86;46.78
9225;BME280;4647;48.072;11.616;2023-07-29T11:28:40;94880.22;;;27.78;46.08
9225;BME280;4647;48.072;11.616;2023-07-29T11:31:08;94889.94;;;27.07;46.34
9225;BME280;4647;48.072;11.616;2023-07-29T11:33:39;94881.66;;;26.83;46.95
9225;BME280;4647;48.072;11.616;2023-07-29T11:36:17;94890.00;;;26.83;45.55
9225;BME280;4647;48.072;11.616;2023-07-29T11:38:46;94887.13;;;25.83;47.58
9225;BME280;4647;48.072;11.616;2023-07-29T11:41:19;94911.63;;;25.14;49.39
9225;BME280;4647;48.072;11.616;2023-07-29T11:43:50;94902.94;;;24.87;50.10
9225;BME280;4647;48.072;11.616;2023-07-29T11:46:21;94881.94;;;24.62;50.74
9225;BME280;4647;48.072;11.616;2023-07-29T11:48:50;94916.00;;;24.45;50.90
9225;BME280;4647;48.072;11.616;2023-07-29T11:51:18;94902.44;;;24.31;51.60
9225;BME280;4647;48.072;11.616;2023-07-29T11:53:48;94904.81;;;24.68;50.42
9225;BME280;4647;48.072;11.616;2023-07-29T11:56:17;94889.69;;;24.69;50.33
9225;BME280;4647;48.072;11.616;2023-07-29T11:58:50;94897.88;;;24.91;50.47
9225;BME280;4647;48.072;11.616;2023-07-29T12:01:21;94896.69;;;25.22;49.69
9225;BME280;4647;48.072;11.616;2023-07-29T12:03:50;94905.44;;;25.32;49.24
9225;BME280;4647;48.072;11.616;2023-07-29T12:06:19;94893.78;;;25.39;49.65
9225;BME280;4647;48.072;11.616;2023-07-29T12:08:49;94881.59;;;25.78;48.80
9225;BME280;4647;48.072;11.616;2023-07-29T12:11:24;94869.34;;;25.67;49.13
9225;BME280;4647;48.072;11.616;2023-07-29T12:13:57;94876.66;;;25.65;48.60
9225;BME280;4647;48.072;11.616;2023-07-29T12:16:27;94870.13;;;25.62;48.72
9225;BME280;4647;48.072;11.616;2023-07-29T12:19:00;94866.19;;;25.82;48.32
9225;BME280;4647;48.072;11.616;2023-07-29T12:21:29;94864.03;;;25.69;48.84
9225;BME280;4647;48.072;11.616;2023-07-29T12:23:57;94855.97;;;25.66;48.02
9225;BME280;4647;48.072;11.616;2023-07-29T12:26:28;94857.88;;;26.01;48.68
9225;BME280;4647;48.072;11.616;2023-07-29T12:28:59;94864.31;;;26.58;45.75
9225;BME280;4647;48.072;11.616;2023-07-29T12:31:31;94864.97;;;26.83;45.51
9225;BME280;4647;48.072;11.616;2023-07-29T12:34:00;94850.47;;;26.90;44.75
9225;BME280;4647;48.072;11.616;2023-07-29T12:36:41;94859.94;;;26.81;45.92
9225;BME280;4647;48.072;11.616;2023-07-29T12:39:17;94851.09;;;26.64;46.52
9225;BME280;4647;48.072;11.616;2023-07-29T12:41:45;94842.66;;;27.07;45.54
9225;BME280;4647;48.072;11.616;2023-07-29T12:44:17;94839.69;;;27.50;44.46
9225;BME280;4647;48.072;11.616;2023-07-29T12:46:45;94782.94;;;27.53;43.40
9225;BME280;4647;48.072;11.616;2023-07-29T12:49:14;94831.59;;;28.05;42.89
9225;BME280;4647;48.072;11.616;2023-07-29T12:51:43;94809.75;;;27.83;43.36
9225;BME280;4647;48.072;11.616;2023-07-29T12:54:11;94841.88;;;28.10;43.32
9225;BME280;4647;48.072;11.616;2023-07-29T12:56:40;94847.88;;;28.01;42.88
9225;BME280;4647;48.072;11.616;2023-07-29T12:59:08;94856.44;;;27.77;43.87
9225;BME280;4647;48.072;11.616;2023-07-29T13:01:40;94852.72;;;26.91;45.42
9225;BME280;4647;48.072;11.616;2023-07-29T13:04:09;94829.91;;;25.99;48.71
9225;BME280;4647;48.072;11.616;2023-07-29T13:06:37;94838.09;;;25.01;50.55
9225;BME280;4647;48.072;11.616;2023-07-29T13:09:06;94854.34;;;23.20;58.76
9225;BME280;4647;48.072;11.616;2023-07-29T13:11:34;94785.75;;;22.85;59.12
9225;BME280;4647;48.072;11.616;2023-07-29T13:14:03;94854.81;;;23.07;60.42
9225;BME280;4647;48.072;11.616;2023-07-29T13:16:31;94902.06;;;23.09;60.78
9225;BME280;4647;48.072;11.616;2023-07-29T13:19:02;94933.75;;;22.43;61.47
9225;BME280;4647;48.072;11.616;2023-07-29T13:21:31;94946.88;;;21.74;65.46
9225;BME280;4647;48.072;11.616;2023-07-29T13:24:00;94884.50;;;21.45;70.28
9225;BME280;4647;48.072;11.616;2023-07-29T13:26:29;94858.50;;;20.63;71.86
9225;BME280;4647;48.072;11.616;2023-07-29T13:28:57;94897.19;;;20.79;78.72